T7HHH SBSP-SBRJ
Flight info
| Callsign | T7HHH |
|---|---|
| Flight time | N/A |
| Altitude | 27000 |
| Route | NIBRU UZ171 KEVUN |
| Aircraft | A20N/M-SDE2E3FGHIRWXY/LB1 |
Departure
| Time | N/A |
|---|---|
| Airport | Congonhas–Deputado Freitas Nobre Airport (SBSP) |
Arrival
| Time | 2026-05-08 04:19 |
|---|---|
| Airport | Santos Dumont Airport (SBRJ) |
| Time | Latitude | Longitude | Altitude | Speed | Heading |
|---|---|---|---|---|---|
| 2026-05-08 03:56 | -23.57180 | -45.46481 | 27634 ft | 497 kts | 78° |
| 2026-05-08 03:57 | -23.56428 | -45.42758 | 28129 ft | 498 kts | 77° |
| 2026-05-08 03:57 | -23.55655 | -45.39100 | 28552 ft | 501 kts | 77° |
| 2026-05-08 03:57 | -23.54858 | -45.35370 | 28943 ft | 503 kts | 77° |
| 2026-05-08 03:58 | -23.53271 | -45.27937 | 29030 ft | 505 kts | 76° |
| 2026-05-08 03:58 | -23.51675 | -45.20440 | 29033 ft | 505 kts | 76° |
| 2026-05-08 03:59 | -23.50099 | -45.13036 | 29021 ft | 504 kts | 77° |
| 2026-05-08 03:59 | -23.48510 | -45.05585 | 29011 ft | 504 kts | 77° |
| 2026-05-08 04:00 | -23.46918 | -44.98145 | 29003 ft | 505 kts | 77° |
| 2026-05-08 04:00 | -23.45311 | -44.90758 | 28994 ft | 504 kts | 76° |
| 2026-05-08 04:01 | -23.43651 | -44.83318 | 28987 ft | 505 kts | 76° |
| 2026-05-08 04:01 | -23.42007 | -44.75951 | 28991 ft | 504 kts | 76° |
| 2026-05-08 04:02 | -23.40357 | -44.68552 | 28994 ft | 503 kts | 76° |
| 2026-05-08 04:02 | -23.38697 | -44.61118 | 28990 ft | 504 kts | 77° |
| 2026-05-08 04:03 | -23.37050 | -44.53748 | 28985 ft | 503 kts | 77° |
| 2026-05-08 04:03 | -23.35387 | -44.46419 | 28339 ft | 495 kts | 75° |
| 2026-05-08 04:03 | -23.34394 | -44.42841 | 27107 ft | 499 kts | 71° |
| 2026-05-08 04:04 | -23.33190 | -44.39348 | 25598 ft | 506 kts | 67° |
| 2026-05-08 04:04 | -23.31753 | -44.35847 | 24062 ft | 510 kts | 65° |
| 2026-05-08 04:04 | -23.30249 | -44.32358 | 22867 ft | 506 kts | 64° |
| 2026-05-08 04:04 | -23.28768 | -44.28951 | 22019 ft | 495 kts | 64° |
| 2026-05-08 04:05 | -23.27323 | -44.25616 | 21265 ft | 484 kts | 64° |
| 2026-05-08 04:05 | -23.25909 | -44.22342 | 20546 ft | 472 kts | 64° |
| 2026-05-08 04:05 | -23.24549 | -44.19180 | 19849 ft | 461 kts | 63° |
| 2026-05-08 04:05 | -23.23204 | -44.16054 | 19151 ft | 451 kts | 63° |
| 2026-05-08 04:06 | -23.21893 | -44.13014 | 18466 ft | 440 kts | 63° |
| 2026-05-08 04:06 | -23.20598 | -44.10011 | 17772 ft | 432 kts | 63° |
| 2026-05-08 04:06 | -23.19337 | -44.07116 | 17089 ft | 424 kts | 62° |
| 2026-05-08 04:06 | -23.18046 | -44.04289 | 16416 ft | 417 kts | 61° |
| 2026-05-08 04:07 | -23.16749 | -44.01495 | 15738 ft | 411 kts | 61° |
| 2026-05-08 04:07 | -23.15478 | -43.98734 | 15062 ft | 406 kts | 62° |
| 2026-05-08 04:07 | -23.14283 | -43.95987 | 14399 ft | 401 kts | 62° |
| 2026-05-08 04:07 | -23.13124 | -43.93259 | 13743 ft | 396 kts | 63° |
| 2026-05-08 04:08 | -23.11979 | -43.90558 | 13080 ft | 391 kts | 62° |
| 2026-05-08 04:08 | -23.10857 | -43.87925 | 12432 ft | 386 kts | 62° |
| 2026-05-08 04:08 | -23.09733 | -43.85294 | 11766 ft | 382 kts | 62° |
| 2026-05-08 04:08 | -23.08608 | -43.82665 | 11050 ft | 379 kts | 62° |
| 2026-05-08 04:09 | -23.07517 | -43.80117 | 10350 ft | 377 kts | 63° |
| 2026-05-08 04:09 | -23.06411 | -43.77533 | 9634 ft | 373 kts | 62° |
| 2026-05-08 04:09 | -23.05329 | -43.75006 | 8936 ft | 370 kts | 62° |
| 2026-05-08 04:09 | -23.04257 | -43.72504 | 8345 ft | 364 kts | 63° |
| 2026-05-08 04:10 | -23.03212 | -43.70070 | 8029 ft | 347 kts | 62° |
| 2026-05-08 04:10 | -23.02199 | -43.67730 | 7710 ft | 333 kts | 62° |
| 2026-05-08 04:10 | -23.01218 | -43.65486 | 7398 ft | 321 kts | 62° |
| 2026-05-08 04:10 | -23.00277 | -43.63342 | 7101 ft | 309 kts | 62° |
| 2026-05-08 04:11 | -22.99366 | -43.61264 | 6873 ft | 296 kts | 61° |
| 2026-05-08 04:11 | -22.98498 | -43.59288 | 6703 ft | 282 kts | 61° |
| 2026-05-08 04:11 | -22.97670 | -43.57404 | 6540 ft | 270 kts | 61° |
| 2026-05-08 04:11 | -22.96878 | -43.55602 | 6389 ft | 258 kts | 61° |
| 2026-05-08 04:12 | -22.96113 | -43.53863 | 6242 ft | 258 kts | 61° |
| 2026-05-08 04:12 | -22.95326 | -43.52085 | 6090 ft | 262 kts | 61° |
| 2026-05-08 04:12 | -22.94539 | -43.50293 | 5920 ft | 262 kts | 62° |
| 2026-05-08 04:12 | -22.93781 | -43.48509 | 5644 ft | 260 kts | 62° |
| 2026-05-08 04:13 | -22.93028 | -43.46721 | 5368 ft | 259 kts | 62° |
| 2026-05-08 04:13 | -22.92278 | -43.44942 | 5098 ft | 258 kts | 62° |
| 2026-05-08 04:13 | -22.91536 | -43.43183 | 4830 ft | 255 kts | 62° |
| 2026-05-08 04:13 | -22.90797 | -43.41434 | 4652 ft | 251 kts | 62° |
| 2026-05-08 04:14 | -22.90082 | -43.39743 | 4473 ft | 242 kts | 62° |
| 2026-05-08 04:14 | -22.89393 | -43.38116 | 4298 ft | 233 kts | 62° |
| 2026-05-08 04:14 | -22.88723 | -43.36539 | 4119 ft | 225 kts | 62° |
| 2026-05-08 04:14 | -22.88104 | -43.34995 | 3951 ft | 219 kts | 66° |
| 2026-05-08 04:15 | -22.87601 | -43.33464 | 3770 ft | 214 kts | 67° |
| 2026-05-08 04:15 | -22.87118 | -43.31941 | 3436 ft | 216 kts | 67° |
| 2026-05-08 04:15 | -22.86629 | -43.30400 | 3137 ft | 216 kts | 67° |
| 2026-05-08 04:15 | -22.86138 | -43.28860 | 2869 ft | 207 kts | 67° |
| 2026-05-08 04:16 | -22.85695 | -43.27459 | 2572 ft | 186 kts | 67° |
| 2026-05-08 04:16 | -22.85442 | -43.26164 | 2384 ft | 171 kts | 87° |
| 2026-05-08 04:16 | -22.85594 | -43.24922 | 2131 ft | 159 kts | 94° |
| 2026-05-08 04:16 | -22.85783 | -43.23797 | 1910 ft | 147 kts | 95° |
| 2026-05-08 04:17 | -22.85955 | -43.22738 | 1741 ft | 134 kts | 94° |
| 2026-05-08 04:17 | -22.86104 | -43.21787 | 1553 ft | 125 kts | 94° |
| 2026-05-08 04:17 | -22.86242 | -43.20854 | 1389 ft | 124 kts | 93° |
| 2026-05-08 04:17 | -22.86375 | -43.19929 | 1228 ft | 124 kts | 94° |
| 2026-05-08 04:18 | -22.86563 | -43.19020 | 1057 ft | 125 kts | 110° |
| 2026-05-08 04:18 | -22.87007 | -43.18207 | 894 ft | 126 kts | 119° |
| 2026-05-08 04:18 | -22.87498 | -43.17416 | 700 ft | 125 kts | 126° |
| 2026-05-08 04:18 | -22.88187 | -43.16820 | 512 ft | 126 kts | 146° |
| 2026-05-08 04:19 | -22.88991 | -43.16456 | 353 ft | 126 kts | 166° |
| 2026-05-08 04:19 | -22.89864 | -43.16361 | 176 ft | 125 kts | 176° |
| 2026-05-08 04:19 | -22.90721 | -43.16312 | 23 ft | 116 kts | 176° |
| 2026-05-08 04:19 | -22.91284 | -43.16274 | 22 ft | 37 kts | 176° |
| 2026-05-08 04:20 | -22.91462 | -43.16263 | 22 ft | 12 kts | 178° |
| 2026-05-08 04:20 | -22.91512 | -43.16299 | 22 ft | 10 kts | 264° |
| 2026-05-08 04:20 | -22.91509 | -43.16385 | 22 ft | 12 kts | 299° |
| 2026-05-08 04:20 | -22.91470 | -43.16432 | 22 ft | 13 kts | 315° |
| 2026-05-08 04:21 | -22.91384 | -43.16504 | 22 ft | 11 kts | 346° |
| 2026-05-08 04:21 | -22.91299 | -43.16512 | 22 ft | 13 kts | 357° |
| 2026-05-08 04:21 | -22.91203 | -43.16518 | 22 ft | 14 kts | 356° |
| 2026-05-08 04:21 | -22.91135 | -43.16527 | 22 ft | 15 kts | 347° |
| 2026-05-08 04:22 | -22.90996 | -43.16553 | 22 ft | 12 kts | 355° |
| 2026-05-08 04:22 | -22.90913 | -43.16556 | 22 ft | 8 kts | 358° |
| 2026-05-08 04:22 | -22.90882 | -43.16600 | 22 ft | 7 kts | 274° |
| 2026-05-08 04:22 | -22.90889 | -43.16656 | 22 ft | 0 kts | 243° |
| 2026-05-08 04:23 | -22.90891 | -43.16661 | 22 ft | 1 kts | 241° |
| 2026-05-08 04:23 | -22.90893 | -43.16665 | 22 ft | 0 kts | 248° |
| 2026-05-08 04:23 | -22.90885 | -43.16667 | 22 ft | 3 kts | 42° |
| 2026-05-08 04:23 | -22.90880 | -43.16613 | 22 ft | 8 kts | 88° |
| 2026-05-08 04:24 | -22.90848 | -43.16565 | 22 ft | 8 kts | 15° |
| 2026-05-08 04:24 | -22.90816 | -43.16581 | 22 ft | 4 kts | 290° |
| 2026-05-08 04:24 | -22.90813 | -43.16617 | 22 ft | 2 kts | 266° |
| 2026-05-08 04:24 | -22.90814 | -43.16623 | 22 ft | 0 kts | 266° |